LiveATC.Net - Listen to live air traffic control over the Internet! Contact LiveATC.net for advertising information


ICAO: KLXT  IATA: LXT   Airport: Lee's Summit Municipal Airport
City: Lee's Summit   State/Province: Missouri
Country: United States   Continent: North America
KLXT METAR Weather: KLXT 251853Z AUTO 14004KT 10SM CLR 25/14 A3006 RMK AO2 SLP172 T02500139
KLXT Flight Activity (FlightAware)
KLXT Airport Info   (AirNav) (iFlightPlanner)
KLXT CTAF/UNICOM
Feed Status: DOWN
Last heard on: 2013-08-19 00:40:05 (432 days 19 hours 5 minutes ago)
KLXT CTAF/UNICOM Audio Archives
FacilityFrequency
Lee's Summit CTAF/UNICOM122.800


NOTICE

Unauthorized use prohibited. See LiveATC.net Terms of Service


Find LiveATC Audio Streams


Airport/ARTCC Code

Frequency
(e.g., 124.400, 128.75)
Site-wide search

Browse LiveATC Feeds
LiveATC Coverage Map
Top 50 LiveATC Feeds
Bad Weather Areas

LiveATC FAQ
Offer a LiveATC Feed
Contact LiveATC.net
Press Inquiries

LiveATC on iPhone
LiveATC on Android

LiveATC Mobile
(Mobile browser)

ATC Audio Archives
Interesting Recordings

LiveATC Forums


Home Page
About LiveATC.net
Make a Donation
LiveATC Bookstore

Terms of Use
Privacy Policy

ATC/Radar Sites
U.S. ARTCC Freqs
Canadian Air Freqs

AIRMETs/SIGMETs

FAA Airport Status
Nat'l Airspace Status
Arrival Demand Charts


Server Software By:
Icecast.org
Liquidsoap

Please make a donation to help us keep growing!